大阪/関西 の空港の天気 - METARとTAF

関西国際空港 ( RJBB / KIX ) - 大阪府泉佐野市
飛行場実況気象(Metar)
観測時間08/18 11:30 JST (08/18 02:30 UTC)
風向・風速南西 5m/s
視程10km以上
天気現象
少しの雲 雲底高度 460m
気温31℃
湿度70%
気圧1009hPa
METARRJBB 180230Z 22009KT 9999 FEW015 31/25 Q1009 NOSIG
過去の天気等 Google飛行場航空写真 Wunderground天気予報

過去48時間のMETAR

飛行場予報(TAF)
発表時間: 8/18 08:08 JST (8/17 23:08 UTC)
予報対象時間: 18日9時 JST ~ 19日15時 JST
風向・風速西南西 5m/s
視程9,000m
天気現象弱いしゅう雨
少しの雲 雲底高度 300m
全天の4割程度の雲 雲底高度 760m
全天の8割程度の雲 雲底高度 1,070m
18日10時 JST ~ 18日12時 JST に一時的に
天気現象しゅう雨
18日21時 JST ~ 18日24時 JST に徐々に
風向・風速東北東 3m/s
19日9時 JST ~ 19日12時 JST に徐々に
風向・風速西 3m/s
TAF RJBB 172308Z 1800/1906 25010KT 9000 -SHRA FEW010 SCT025 BKN035
TEMPO 1801/1803 SHRA
BECMG 1812/1815 07006KT
BECMG 1900/1903 26005KT
日本の空港のMETAR・TAFへのリンク

RJTT 東京国際空港
RJAA 新東京国際空港
RJBB 関西国際空港
RJOO 大阪空港
RJGG 中部国際空港
RJCC 新千歳空港
RJFF 福岡空港
ROAH 那覇空港


RJEC 旭川空港
RJCH 函館空港
RJCK 釧路空港
RJCM 女満別空港
RJCB 帯広空港
RJSA 青森空港
RJSS 仙台空港
RJSK 秋田空港
RJSF 福島空港
RJAH 茨城空港
RJSN 新潟空港
RJNT 富山空港
RJNK 小松飛行場
RJNS 静岡空港
RJOH 美保飛行場
RJOC 出雲空港
RJOB 岡山空港
RJOA 広島空港
RJOI 岩国飛行場
RJOT 高松空港
RJOM 松山空港
RJOK 高知空港
RJFR 北九州空港
RJFT 熊本空港
RJFU 長崎空港
RJFS 佐賀空港
RJFO 大分空港
RJFM 宮崎空港
RJFK 鹿児島空港
ROIG 石垣島空港
RJTY 横田飛行場
ROTM 普天間飛行場
RODN 嘉手納飛行場